sensor_id;sensor_type;location;lat;lon;timestamp;temperature;humidity
6538;DHT22;3302;52.508;13.454;2024-01-15T00:00:41;2.10;99.90
6538;DHT22;3302;52.508;13.454;2024-01-15T00:03:07;2.10;99.90
6538;DHT22;3302;52.508;13.454;2024-01-15T00:05:33;2.10;99.90
6538;DHT22;3302;52.508;13.454;2024-01-15T00:07:58;2.10;99.90
6538;DHT22;3302;52.508;13.454;2024-01-15T00:10:24;2.10;99.90
6538;DHT22;3302;52.508;13.454;2024-01-15T00:12:50;2.00;99.90
6538;DHT22;3302;52.508;13.454;2024-01-15T00:15:16;2.00;99.90
6538;DHT22;3302;52.508;13.454;2024-01-15T00:17:41;2.00;99.90
6538;DHT22;3302;52.508;13.454;2024-01-15T00:20:07;1.90;99.90
6538;DHT22;3302;52.508;13.454;2024-01-15T00:22:33;1.90;99.90
6538;DHT22;3302;52.508;13.454;2024-01-15T00:25:02;1.90;99.90
6538;DHT22;3302;52.508;13.454;2024-01-15T00:27:27;1.90;99.90
6538;DHT22;3302;52.508;13.454;2024-01-15T00:29:53;2.00;99.90
6538;DHT22;3302;52.508;13.454;2024-01-15T00:32:20;2.00;99.90
6538;DHT22;3302;52.508;13.454;2024-01-15T00:34:46;2.00;99.90
6538;DHT22;3302;52.508;13.454;2024-01-15T00:37:12;2.00;99.90
6538;DHT22;3302;52.508;13.454;2024-01-15T00:39:38;2.00;99.90
6538;DHT22;3302;52.508;13.454;2024-01-15T00:42:04;2.00;99.90
6538;DHT22;3302;52.508;13.454;2024-01-15T00:44:30;2.00;99.90
6538;DHT22;3302;52.508;13.454;2024-01-15T00:46:56;2.00;99.90
6538;DHT22;3302;52.508;13.454;2024-01-15T00:49:21;2.00;99.90
6538;DHT22;3302;52.508;13.454;2024-01-15T00:51:47;2.00;99.90
6538;DHT22;3302;52.508;13.454;2024-01-15T00:54:13;2.00;99.90
6538;DHT22;3302;52.508;13.454;2024-01-15T00:56:39;2.00;99.90
6538;DHT22;3302;52.508;13.454;2024-01-15T00:59:05;2.00;99.90
6538;DHT22;3302;52.508;13.454;2024-01-15T01:01:31;2.00;99.90
6538;DHT22;3302;52.508;13.454;2024-01-15T01:03:56;2.00;99.90
6538;DHT22;3302;52.508;13.454;2024-01-15T01:06:23;2.00;99.90
6538;DHT22;3302;52.508;13.454;2024-01-15T01:08:49;1.90;99.90
6538;DHT22;3302;52.508;13.454;2024-01-15T01:11:15;1.90;99.90
6538;DHT22;3302;52.508;13.454;2024-01-15T01:13:42;1.90;99.90
6538;DHT22;3302;52.508;13.454;2024-01-15T01:16:07;1.80;99.90
6538;DHT22;3302;52.508;13.454;2024-01-15T01:18:34;1.70;99.90
6538;DHT22;3302;52.508;13.454;2024-01-15T01:21:00;1.80;99.90
6538;DHT22;3302;52.508;13.454;2024-01-15T01:23:26;1.70;99.90
6538;DHT22;3302;52.508;13.454;2024-01-15T01:25:52;1.60;99.90
6538;DHT22;3302;52.508;13.454;2024-01-15T01:28:17;1.60;99.90
6538;DHT22;3302;52.508;13.454;2024-01-15T01:30:43;1.60;99.90
6538;DHT22;3302;52.508;13.454;2024-01-15T01:33:09;1.60;99.90
6538;DHT22;3302;52.508;13.454;2024-01-15T01:35:36;1.70;99.90
6538;DHT22;3302;52.508;13.454;2024-01-15T01:38:02;1.60;99.90
6538;DHT22;3302;52.508;13.454;2024-01-15T01:40:28;1.60;99.90
6538;DHT22;3302;52.508;13.454;2024-01-15T01:42:53;1.60;99.90
6538;DHT22;3302;52.508;13.454;2024-01-15T01:45:19;1.60;99.90
6538;DHT22;3302;52.508;13.454;2024-01-15T01:47:45;1.60;99.90
6538;DHT22;3302;52.508;13.454;2024-01-15T01:50:12;1.60;99.90
6538;DHT22;3302;52.508;13.454;2024-01-15T01:52:38;1.50;99.90
6538;DHT22;3302;52.508;13.454;2024-01-15T01:55:06;1.40;99.90
6538;DHT22;3302;52.508;13.454;2024-01-15T01:57:33;1.30;99.90
6538;DHT22;3302;52.508;13.454;2024-01-15T02:00:02;1.30;99.90
6538;DHT22;3302;52.508;13.454;2024-01-15T02:02:30;1.40;99.90
6538;DHT22;3302;52.508;13.454;2024-01-15T02:04:56;1.40;99.90
6538;DHT22;3302;52.508;13.454;2024-01-15T02:07:22;1.40;99.90
6538;DHT22;3302;52.508;13.454;2024-01-15T02:09:49;1.50;99.90
6538;DHT22;3302;52.508;13.454;2024-01-15T02:12:16;1.40;99.90
6538;DHT22;3302;52.508;13.454;2024-01-15T02:14:42;1.40;99.90
6538;DHT22;3302;52.508;13.454;2024-01-15T02:17:08;1.40;99.90
6538;DHT22;3302;52.508;13.454;2024-01-15T02:19:34;1.40;99.90
6538;DHT22;3302;52.508;13.454;2024-01-15T02:22:00;1.30;99.90
6538;DHT22;3302;52.508;13.454;2024-01-15T02:24:25;1.30;99.90
6538;DHT22;3302;52.508;13.454;2024-01-15T02:26:51;1.40;99.90
6538;DHT22;3302;52.508;13.454;2024-01-15T02:29:17;1.40;99.90
6538;DHT22;3302;52.508;13.454;2024-01-15T02:31:43;1.40;99.90
6538;DHT22;3302;52.508;13.454;2024-01-15T02:34:09;1.40;99.90
6538;DHT22;3302;52.508;13.454;2024-01-15T02:36:35;1.40;99.90
6538;DHT22;3302;52.508;13.454;2024-01-15T02:39:00;1.50;99.90
6538;DHT22;3302;52.508;13.454;2024-01-15T02:41:27;1.50;99.90
6538;DHT22;3302;52.508;13.454;2024-01-15T02:43:53;1.50;99.90
6538;DHT22;3302;52.508;13.454;2024-01-15T02:46:19;1.50;99.90
6538;DHT22;3302;52.508;13.454;2024-01-15T02:48:44;1.50;99.90
6538;DHT22;3302;52.508;13.454;2024-01-15T02:51:10;1.50;99.90
6538;DHT22;3302;52.508;13.454;2024-01-15T02:53:36;1.40;99.90
6538;DHT22;3302;52.508;13.454;2024-01-15T02:56:03;1.50;99.90
6538;DHT22;3302;52.508;13.454;2024-01-15T02:58:28;1.50;99.90
6538;DHT22;3302;52.508;13.454;2024-01-15T03:00:54;1.50;99.90
6538;DHT22;3302;52.508;13.454;2024-01-15T03:03:20;1.60;99.90
6538;DHT22;3302;52.508;13.454;2024-01-15T03:05:46;1.60;99.90
6538;DHT22;3302;52.508;13.454;2024-01-15T03:08:12;1.60;99.90
6538;DHT22;3302;52.508;13.454;2024-01-15T03:10:38;1.60;99.90
6538;DHT22;3302;52.508;13.454;2024-01-15T03:13:04;1.60;99.90
6538;DHT22;3302;52.508;13.454;2024-01-15T03:15:30;1.60;99.90
6538;DHT22;3302;52.508;13.454;2024-01-15T03:17:55;1.60;99.90
6538;DHT22;3302;52.508;13.454;2024-01-15T03:20:21;1.60;99.90
6538;DHT22;3302;52.508;13.454;2024-01-15T03:22:47;1.60;99.90
6538;DHT22;3302;52.508;13.454;2024-01-15T03:25:13;1.60;99.90
6538;DHT22;3302;52.508;13.454;2024-01-15T03:27:39;1.60;99.90
6538;DHT22;3302;52.508;13.454;2024-01-15T03:30:05;1.60;99.90
6538;DHT22;3302;52.508;13.454;2024-01-15T03:32:31;1.60;99.90
6538;DHT22;3302;52.508;13.454;2024-01-15T03:34:57;1.60;99.90
6538;DHT22;3302;52.508;13.454;2024-01-15T03:37:23;1.60;99.90
6538;DHT22;3302;52.508;13.454;2024-01-15T03:39:49;1.60;99.90
6538;DHT22;3302;52.508;13.454;2024-01-15T03:42:14;1.60;99.90
6538;DHT22;3302;52.508;13.454;2024-01-15T03:44:40;1.50;99.90
6538;DHT22;3302;52.508;13.454;2024-01-15T03:47:06;1.60;99.90
6538;DHT22;3302;52.508;13.454;2024-01-15T03:49:32;1.60;99.90
6538;DHT22;3302;52.508;13.454;2024-01-15T03:51:57;1.60;99.90
6538;DHT22;3302;52.508;13.454;2024-01-15T03:54:23;1.60;99.90
6538;DHT22;3302;52.508;13.454;2024-01-15T03:56:49;1.60;99.90
6538;DHT22;3302;52.508;13.454;2024-01-15T03:59:15;1.60;99.90
6538;DHT22;3302;52.508;13.454;2024-01-15T04:01:40;1.60;99.90
6538;DHT22;3302;52.508;13.454;2024-01-15T04:04:06;1.60;99.90
6538;DHT22;3302;52.508;13.454;2024-01-15T04:06:32;1.70;99.90
6538;DHT22;3302;52.508;13.454;2024-01-15T04:08:58;1.70;99.90
6538;DHT22;3302;52.508;13.454;2024-01-15T04:11:24;1.60;99.90
6538;DHT22;3302;52.508;13.454;2024-01-15T04:13:50;1.60;99.90
6538;DHT22;3302;52.508;13.454;2024-01-15T04:16:15;1.60;99.90
6538;DHT22;3302;52.508;13.454;2024-01-15T04:18:41;1.70;99.90
6538;DHT22;3302;52.508;13.454;2024-01-15T04:21:07;1.70;99.90
6538;DHT22;3302;52.508;13.454;2024-01-15T04:23:33;1.70;99.90
6538;DHT22;3302;52.508;13.454;2024-01-15T04:25:59;1.70;99.90
6538;DHT22;3302;52.508;13.454;2024-01-15T04:28:25;1.70;99.90
6538;DHT22;3302;52.508;13.454;2024-01-15T04:30:50;1.70;99.90
6538;DHT22;3302;52.508;13.454;2024-01-15T04:33:16;1.70;99.90
6538;DHT22;3302;52.508;13.454;2024-01-15T04:35:42;1.70;99.90
6538;DHT22;3302;52.508;13.454;2024-01-15T04:38:08;1.70;99.90
6538;DHT22;3302;52.508;13.454;2024-01-15T04:40:33;1.80;99.90
6538;DHT22;3302;52.508;13.454;2024-01-15T04:42:59;1.80;99.90
6538;DHT22;3302;52.508;13.454;2024-01-15T04:45:25;1.80;99.90
6538;DHT22;3302;52.508;13.454;2024-01-15T04:47:54;1.80;99.90
6538;DHT22;3302;52.508;13.454;2024-01-15T04:50:22;1.80;99.90
6538;DHT22;3302;52.508;13.454;2024-01-15T04:52:48;1.80;99.90
6538;DHT22;3302;52.508;13.454;2024-01-15T04:55:14;1.80;99.90
6538;DHT22;3302;52.508;13.454;2024-01-15T04:57:39;1.80;99.90
6538;DHT22;3302;52.508;13.454;2024-01-15T05:00:06;1.80;99.90
6538;DHT22;3302;52.508;13.454;2024-01-15T05:02:32;1.80;99.90
6538;DHT22;3302;52.508;13.454;2024-01-15T05:04:57;1.80;99.90
6538;DHT22;3302;52.508;13.454;2024-01-15T05:07:23;1.80;99.90
6538;DHT22;3302;52.508;13.454;2024-01-15T05:09:49;1.80;99.90
6538;DHT22;3302;52.508;13.454;2024-01-15T05:12:15;1.80;99.90
6538;DHT22;3302;52.508;13.454;2024-01-15T05:14:40;1.90;99.90
6538;DHT22;3302;52.508;13.454;2024-01-15T05:17:06;1.90;99.90
6538;DHT22;3302;52.508;13.454;2024-01-15T05:19:32;1.90;99.90
6538;DHT22;3302;52.508;13.454;2024-01-15T05:21:58;1.80;99.90
6538;DHT22;3302;52.508;13.454;2024-01-15T05:24:24;1.80;99.90
6538;DHT22;3302;52.508;13.454;2024-01-15T05:26:52;1.80;99.90
6538;DHT22;3302;52.508;13.454;2024-01-15T05:29:18;1.80;99.90
6538;DHT22;3302;52.508;13.454;2024-01-15T05:31:44;1.80;99.90
6538;DHT22;3302;52.508;13.454;2024-01-15T05:34:10;1.80;99.90
6538;DHT22;3302;52.508;13.454;2024-01-15T05:36:36;1.80;99.90
6538;DHT22;3302;52.508;13.454;2024-01-15T05:39:02;1.80;99.90
6538;DHT22;3302;52.508;13.454;2024-01-15T05:41:28;1.80;99.90
6538;DHT22;3302;52.508;13.454;2024-01-15T05:43:54;1.80;99.90
6538;DHT22;3302;52.508;13.454;2024-01-15T05:46:20;1.90;99.90
6538;DHT22;3302;52.508;13.454;2024-01-15T05:48:46;1.90;99.90
6538;DHT22;3302;52.508;13.454;2024-01-15T05:51:12;1.90;99.90
6538;DHT22;3302;52.508;13.454;2024-01-15T05:53:38;1.90;99.90
6538;DHT22;3302;52.508;13.454;2024-01-15T05:56:06;1.90;99.90
6538;DHT22;3302;52.508;13.454;2024-01-15T05:58:31;2.00;99.90
6538;DHT22;3302;52.508;13.454;2024-01-15T06:00:57;1.90;99.90
6538;DHT22;3302;52.508;13.454;2024-01-15T06:03:23;1.80;99.90
6538;DHT22;3302;52.508;13.454;2024-01-15T06:05:49;1.80;99.90
6538;DHT22;3302;52.508;13.454;2024-01-15T06:08:15;1.70;99.90
6538;DHT22;3302;52.508;13.454;2024-01-15T06:10:41;1.70;99.90
6538;DHT22;3302;52.508;13.454;2024-01-15T06:13:06;1.80;99.90
6538;DHT22;3302;52.508;13.454;2024-01-15T06:15:32;1.80;99.90
6538;DHT22;3302;52.508;13.454;2024-01-15T06:17:58;1.80;99.90
6538;DHT22;3302;52.508;13.454;2024-01-15T06:20:24;1.90;99.90
6538;DHT22;3302;52.508;13.454;2024-01-15T06:22:49;1.90;99.90
6538;DHT22;3302;52.508;13.454;2024-01-15T06:25:15;1.90;99.90
6538;DHT22;3302;52.508;13.454;2024-01-15T06:27:41;1.90;99.90
6538;DHT22;3302;52.508;13.454;2024-01-15T06:30:07;2.00;99.90
6538;DHT22;3302;52.508;13.454;2024-01-15T06:32:34;2.00;99.90
6538;DHT22;3302;52.508;13.454;2024-01-15T06:34:59;2.00;99.90
6538;DHT22;3302;52.508;13.454;2024-01-15T06:37:25;2.00;99.90
6538;DHT22;3302;52.508;13.454;2024-01-15T06:39:51;2.00;99.90
6538;DHT22;3302;52.508;13.454;2024-01-15T06:42:17;1.90;99.90
6538;DHT22;3302;52.508;13.454;2024-01-15T06:44:43;1.90;99.90
6538;DHT22;3302;52.508;13.454;2024-01-15T06:47:09;1.90;99.90
6538;DHT22;3302;52.508;13.454;2024-01-15T06:49:34;1.90;99.90
6538;DHT22;3302;52.508;13.454;2024-01-15T06:52:00;1.90;99.90
6538;DHT22;3302;52.508;13.454;2024-01-15T06:54:26;1.90;99.90
6538;DHT22;3302;52.508;13.454;2024-01-15T06:56:52;1.90;99.90
6538;DHT22;3302;52.508;13.454;2024-01-15T06:59:17;1.90;99.90
6538;DHT22;3302;52.508;13.454;2024-01-15T07:01:43;2.00;99.90
6538;DHT22;3302;52.508;13.454;2024-01-15T07:04:09;1.90;99.90
6538;DHT22;3302;52.508;13.454;2024-01-15T07:06:35;2.00;99.90
6538;DHT22;3302;52.508;13.454;2024-01-15T07:09:01;2.00;99.90
6538;DHT22;3302;52.508;13.454;2024-01-15T07:11:27;2.00;99.90
6538;DHT22;3302;52.508;13.454;2024-01-15T07:13:53;2.00;99.90
6538;DHT22;3302;52.508;13.454;2024-01-15T07:16:18;2.00;99.90
6538;DHT22;3302;52.508;13.454;2024-01-15T07:18:44;2.10;99.90
6538;DHT22;3302;52.508;13.454;2024-01-15T07:21:10;2.10;99.90
6538;DHT22;3302;52.508;13.454;2024-01-15T07:23:36;2.10;99.90
6538;DHT22;3302;52.508;13.454;2024-01-15T07:26:02;2.10;99.90
6538;DHT22;3302;52.508;13.454;2024-01-15T07:28:29;2.20;99.90
6538;DHT22;3302;52.508;13.454;2024-01-15T07:30:55;2.20;99.90
6538;DHT22;3302;52.508;13.454;2024-01-15T07:33:21;2.20;99.90
6538;DHT22;3302;52.508;13.454;2024-01-15T07:35:47;2.20;99.90
6538;DHT22;3302;52.508;13.454;2024-01-15T07:38:13;2.20;99.90
6538;DHT22;3302;52.508;13.454;2024-01-15T07:40:39;2.20;99.90
6538;DHT22;3302;52.508;13.454;2024-01-15T07:43:04;2.30;99.90
6538;DHT22;3302;52.508;13.454;2024-01-15T07:45:30;2.30;99.90
6538;DHT22;3302;52.508;13.454;2024-01-15T07:47:57;2.30;99.90
6538;DHT22;3302;52.508;13.454;2024-01-15T07:50:22;2.30;99.90
6538;DHT22;3302;52.508;13.454;2024-01-15T07:52:48;2.30;99.90
6538;DHT22;3302;52.508;13.454;2024-01-15T07:55:14;2.40;99.90
6538;DHT22;3302;52.508;13.454;2024-01-15T07:57:40;2.30;99.90
6538;DHT22;3302;52.508;13.454;2024-01-15T08:00:06;2.30;99.90
6538;DHT22;3302;52.508;13.454;2024-01-15T08:02:32;2.30;99.90
6538;DHT22;3302;52.508;13.454;2024-01-15T08:04:58;2.30;99.90
6538;DHT22;3302;52.508;13.454;2024-01-15T08:07:26;2.30;99.90
6538;DHT22;3302;52.508;13.454;2024-01-15T08:09:53;2.30;99.90
6538;DHT22;3302;52.508;13.454;2024-01-15T08:12:19;2.30;99.90
6538;DHT22;3302;52.508;13.454;2024-01-15T08:14:45;2.30;99.90
6538;DHT22;3302;52.508;13.454;2024-01-15T08:17:11;2.30;99.90
6538;DHT22;3302;52.508;13.454;2024-01-15T08:19:37;2.40;99.90
6538;DHT22;3302;52.508;13.454;2024-01-15T08:22:03;2.40;99.90
6538;DHT22;3302;52.508;13.454;2024-01-15T08:24:29;2.30;99.90
6538;DHT22;3302;52.508;13.454;2024-01-15T08:26:54;2.30;99.90
6538;DHT22;3302;52.508;13.454;2024-01-15T08:29:21;2.30;99.90
6538;DHT22;3302;52.508;13.454;2024-01-15T08:31:47;2.30;99.90
6538;DHT22;3302;52.508;13.454;2024-01-15T08:34:13;2.30;99.90
6538;DHT22;3302;52.508;13.454;2024-01-15T08:36:39;2.30;99.90
6538;DHT22;3302;52.508;13.454;2024-01-15T08:39:06;2.30;99.90
6538;DHT22;3302;52.508;13.454;2024-01-15T08:41:35;2.30;99.90
6538;DHT22;3302;52.508;13.454;2024-01-15T08:44:01;2.30;99.90
6538;DHT22;3302;52.508;13.454;2024-01-15T08:46:29;2.30;99.90
6538;DHT22;3302;52.508;13.454;2024-01-15T08:48:55;2.30;99.90
6538;DHT22;3302;52.508;13.454;2024-01-15T08:51:21;2.30;99.90
6538;DHT22;3302;52.508;13.454;2024-01-15T08:53:47;2.30;99.90
6538;DHT22;3302;52.508;13.454;2024-01-15T08:56:13;2.30;99.90
6538;DHT22;3302;52.508;13.454;2024-01-15T08:58:39;2.30;99.90
6538;DHT22;3302;52.508;13.454;2024-01-15T09:01:05;2.30;99.90
6538;DHT22;3302;52.508;13.454;2024-01-15T09:03:31;2.30;99.90
6538;DHT22;3302;52.508;13.454;2024-01-15T09:05:56;2.30;99.90
6538;DHT22;3302;52.508;13.454;2024-01-15T09:08:22;2.30;99.90
6538;DHT22;3302;52.508;13.454;2024-01-15T09:10:48;2.40;99.90
6538;DHT22;3302;52.508;13.454;2024-01-15T09:13:14;2.40;99.90
6538;DHT22;3302;52.508;13.454;2024-01-15T09:15:39;2.40;99.90
6538;DHT22;3302;52.508;13.454;2024-01-15T09:18:05;2.40;99.90
6538;DHT22;3302;52.508;13.454;2024-01-15T09:20:31;2.40;99.90
6538;DHT22;3302;52.508;13.454;2024-01-15T09:22:57;2.30;99.90
6538;DHT22;3302;52.508;13.454;2024-01-15T09:25:23;2.30;99.90
6538;DHT22;3302;52.508;13.454;2024-01-15T09:27:48;2.40;99.90
6538;DHT22;3302;52.508;13.454;2024-01-15T09:30:14;2.40;99.90
6538;DHT22;3302;52.508;13.454;2024-01-15T09:32:41;2.40;99.90
6538;DHT22;3302;52.508;13.454;2024-01-15T09:35:07;2.40;99.90
6538;DHT22;3302;52.508;13.454;2024-01-15T09:37:33;2.40;99.90
6538;DHT22;3302;52.508;13.454;2024-01-15T09:39:59;2.40;99.90
6538;DHT22;3302;52.508;13.454;2024-01-15T09:42:24;2.40;99.90
6538;DHT22;3302;52.508;13.454;2024-01-15T09:44:51;2.40;99.90
6538;DHT22;3302;52.508;13.454;2024-01-15T09:47:19;2.50;99.90
6538;DHT22;3302;52.508;13.454;2024-01-15T09:49:47;2.50;99.90
6538;DHT22;3302;52.508;13.454;2024-01-15T09:52:15;2.50;99.90
6538;DHT22;3302;52.508;13.454;2024-01-15T09:54:43;2.60;99.90
6538;DHT22;3302;52.508;13.454;2024-01-15T09:57:09;2.60;99.90
6538;DHT22;3302;52.508;13.454;2024-01-15T09:59:36;2.50;99.90
6538;DHT22;3302;52.508;13.454;2024-01-15T10:02:03;2.50;99.90
6538;DHT22;3302;52.508;13.454;2024-01-15T10:04:29;2.50;99.90
6538;DHT22;3302;52.508;13.454;2024-01-15T10:06:56;2.50;99.90
6538;DHT22;3302;52.508;13.454;2024-01-15T10:09:23;2.50;99.90
6538;DHT22;3302;52.508;13.454;2024-01-15T10:11:49;2.60;99.90
6538;DHT22;3302;52.508;13.454;2024-01-15T10:14:15;2.70;99.90
6538;DHT22;3302;52.508;13.454;2024-01-15T10:16:41;2.60;99.90
6538;DHT22;3302;52.508;13.454;2024-01-15T10:19:10;2.60;99.90
6538;DHT22;3302;52.508;13.454;2024-01-15T10:21:36;2.60;99.90
6538;DHT22;3302;52.508;13.454;2024-01-15T10:24:03;2.60;99.90
6538;DHT22;3302;52.508;13.454;2024-01-15T10:26:30;2.70;99.90
6538;DHT22;3302;52.508;13.454;2024-01-15T10:28:58;2.70;99.90
6538;DHT22;3302;52.508;13.454;2024-01-15T10:31:25;2.70;99.90
6538;DHT22;3302;52.508;13.454;2024-01-15T10:33:51;2.80;99.90
6538;DHT22;3302;52.508;13.454;2024-01-15T10:36:18;2.80;99.90
6538;DHT22;3302;52.508;13.454;2024-01-15T10:38:44;2.80;99.90
6538;DHT22;3302;52.508;13.454;2024-01-15T10:41:10;2.80;99.90
6538;DHT22;3302;52.508;13.454;2024-01-15T10:43:36;2.80;99.90
6538;DHT22;3302;52.508;13.454;2024-01-15T10:46:02;2.80;99.90
6538;DHT22;3302;52.508;13.454;2024-01-15T10:48:29;2.80;99.90
6538;DHT22;3302;52.508;13.454;2024-01-15T10:50:57;2.90;99.90
6538;DHT22;3302;52.508;13.454;2024-01-15T10:53:24;2.80;99.90
6538;DHT22;3302;52.508;13.454;2024-01-15T10:55:54;2.80;99.90
6538;DHT22;3302;52.508;13.454;2024-01-15T10:58:20;2.90;99.90
6538;DHT22;3302;52.508;13.454;2024-01-15T11:00:48;2.80;99.90
6538;DHT22;3302;52.508;13.454;2024-01-15T11:03:14;2.80;99.90
6538;DHT22;3302;52.508;13.454;2024-01-15T11:05:44;2.80;99.90
6538;DHT22;3302;52.508;13.454;2024-01-15T11:08:10;2.90;99.90
6538;DHT22;3302;52.508;13.454;2024-01-15T11:10:40;3.00;99.90
6538;DHT22;3302;52.508;13.454;2024-01-15T11:13:21;2.90;99.90
6538;DHT22;3302;52.508;13.454;2024-01-15T11:18:23;2.90;99.90
6538;DHT22;3302;52.508;13.454;2024-01-15T11:29:08;2.80;99.90
6538;DHT22;3302;52.508;13.454;2024-01-15T11:34:10;2.80;99.90
6538;DHT22;3302;52.508;13.454;2024-01-15T11:39:39;2.70;99.90
6538;DHT22;3302;52.508;13.454;2024-01-15T11:42:04;2.70;99.90
6538;DHT22;3302;52.508;13.454;2024-01-15T11:44:30;2.80;99.90
6538;DHT22;3302;52.508;13.454;2024-01-15T11:47:04;2.70;99.90
6538;DHT22;3302;52.508;13.454;2024-01-15T11:52:01;2.70;99.90
6538;DHT22;3302;52.508;13.454;2024-01-15T11:54:32;2.60;99.90
6538;DHT22;3302;52.508;13.454;2024-01-15T11:57:05;2.40;99.90
6538;DHT22;3302;52.508;13.454;2024-01-15T11:59:33;2.30;99.90
6538;DHT22;3302;52.508;13.454;2024-01-15T12:01:59;2.30;99.90
6538;DHT22;3302;52.508;13.454;2024-01-15T12:04:25;2.00;99.90
6538;DHT22;3302;52.508;13.454;2024-01-15T12:06:51;1.90;99.90
6538;DHT22;3302;52.508;13.454;2024-01-15T12:09:19;2.00;99.90
6538;DHT22;3302;52.508;13.454;2024-01-15T12:11:54;2.10;99.90
6538;DHT22;3302;52.508;13.454;2024-01-15T12:14:21;2.10;99.90
6538;DHT22;3302;52.508;13.454;2024-01-15T12:16:47;2.20;99.90
6538;DHT22;3302;52.508;13.454;2024-01-15T12:19:15;2.20;99.90
6538;DHT22;3302;52.508;13.454;2024-01-15T12:21:40;2.20;99.90
6538;DHT22;3302;52.508;13.454;2024-01-15T12:24:10;2.20;99.90
6538;DHT22;3302;52.508;13.454;2024-01-15T12:26:35;2.20;99.90
6538;DHT22;3302;52.508;13.454;2024-01-15T12:29:06;2.20;99.90
6538;DHT22;3302;52.508;13.454;2024-01-15T12:31:32;2.20;99.90
6538;DHT22;3302;52.508;13.454;2024-01-15T12:33:58;2.20;99.90
6538;DHT22;3302;52.508;13.454;2024-01-15T12:36:24;2.20;99.90
6538;DHT22;3302;52.508;13.454;2024-01-15T12:38:50;2.20;99.90
6538;DHT22;3302;52.508;13.454;2024-01-15T12:41:17;2.20;99.90
6538;DHT22;3302;52.508;13.454;2024-01-15T12:43:43;2.20;99.90
6538;DHT22;3302;52.508;13.454;2024-01-15T12:46:09;2.20;99.90
6538;DHT22;3302;52.508;13.454;2024-01-15T12:48:35;2.10;99.90
6538;DHT22;3302;52.508;13.454;2024-01-15T12:51:00;2.00;99.90
6538;DHT22;3302;52.508;13.454;2024-01-15T12:53:26;1.90;99.90
6538;DHT22;3302;52.508;13.454;2024-01-15T12:55:52;1.80;99.90
6538;DHT22;3302;52.508;13.454;2024-01-15T12:58:18;1.80;99.90
6538;DHT22;3302;52.508;13.454;2024-01-15T13:00:44;1.80;99.90
6538;DHT22;3302;52.508;13.454;2024-01-15T13:03:10;1.80;99.90
6538;DHT22;3302;52.508;13.454;2024-01-15T13:05:37;1.80;99.90
6538;DHT22;3302;52.508;13.454;2024-01-15T13:08:04;1.90;99.90
6538;DHT22;3302;52.508;13.454;2024-01-15T13:10:30;1.90;99.90
6538;DHT22;3302;52.508;13.454;2024-01-15T13:12:56;1.90;99.90
6538;DHT22;3302;52.508;13.454;2024-01-15T13:15:22;1.90;99.90
6538;DHT22;3302;52.508;13.454;2024-01-15T13:17:47;2.00;99.90
6538;DHT22;3302;52.508;13.454;2024-01-15T13:20:13;2.00;99.90
6538;DHT22;3302;52.508;13.454;2024-01-15T13:22:39;2.00;99.90
6538;DHT22;3302;52.508;13.454;2024-01-15T13:25:06;2.00;99.90
6538;DHT22;3302;52.508;13.454;2024-01-15T13:27:33;2.00;99.90
6538;DHT22;3302;52.508;13.454;2024-01-15T13:30:02;2.00;99.90
6538;DHT22;3302;52.508;13.454;2024-01-15T13:32:28;2.00;99.90
6538;DHT22;3302;52.508;13.454;2024-01-15T13:34:56;2.10;99.90
6538;DHT22;3302;52.508;13.454;2024-01-15T13:37:22;2.00;99.90
6538;DHT22;3302;52.508;13.454;2024-01-15T13:39:50;2.10;99.90
6538;DHT22;3302;52.508;13.454;2024-01-15T13:42:18;2.00;99.90
6538;DHT22;3302;52.508;13.454;2024-01-15T13:44:44;2.10;99.90
6538;DHT22;3302;52.508;13.454;2024-01-15T13:47:09;2.10;99.90
6538;DHT22;3302;52.508;13.454;2024-01-15T13:49:36;2.00;99.90
6538;DHT22;3302;52.508;13.454;2024-01-15T13:52:03;2.00;99.90
6538;DHT22;3302;52.508;13.454;2024-01-15T13:54:29;2.00;99.90
6538;DHT22;3302;52.508;13.454;2024-01-15T13:56:57;2.00;99.90
6538;DHT22;3302;52.508;13.454;2024-01-15T13:59:24;2.00;99.90
6538;DHT22;3302;52.508;13.454;2024-01-15T14:01:50;2.00;99.90
6538;DHT22;3302;52.508;13.454;2024-01-15T14:04:16;2.00;99.90
6538;DHT22;3302;52.508;13.454;2024-01-15T14:06:42;2.10;99.90
6538;DHT22;3302;52.508;13.454;2024-01-15T14:09:07;2.10;99.90
6538;DHT22;3302;52.508;13.454;2024-01-15T14:11:36;2.10;99.90
6538;DHT22;3302;52.508;13.454;2024-01-15T14:14:03;2.10;99.90
6538;DHT22;3302;52.508;13.454;2024-01-15T14:16:29;2.10;99.90
6538;DHT22;3302;52.508;13.454;2024-01-15T14:18:54;2.10;99.90
6538;DHT22;3302;52.508;13.454;2024-01-15T14:21:20;2.10;99.90
6538;DHT22;3302;52.508;13.454;2024-01-15T14:23:46;2.10;99.90
6538;DHT22;3302;52.508;13.454;2024-01-15T14:26:12;2.10;99.90
6538;DHT22;3302;52.508;13.454;2024-01-15T14:28:37;2.10;99.90
6538;DHT22;3302;52.508;13.454;2024-01-15T14:31:04;2.10;99.90
6538;DHT22;3302;52.508;13.454;2024-01-15T14:33:31;2.10;99.90
6538;DHT22;3302;52.508;13.454;2024-01-15T14:35:57;2.10;99.90
6538;DHT22;3302;52.508;13.454;2024-01-15T14:38:23;2.10;99.90
6538;DHT22;3302;52.508;13.454;2024-01-15T14:40:49;2.10;99.90
6538;DHT22;3302;52.508;13.454;2024-01-15T14:43:15;2.10;99.90
6538;DHT22;3302;52.508;13.454;2024-01-15T14:45:41;2.10;99.90
6538;DHT22;3302;52.508;13.454;2024-01-15T14:48:07;2.10;99.90
6538;DHT22;3302;52.508;13.454;2024-01-15T14:50:33;2.10;99.90
6538;DHT22;3302;52.508;13.454;2024-01-15T14:52:59;2.10;99.90
6538;DHT22;3302;52.508;13.454;2024-01-15T14:55:24;2.10;99.90
6538;DHT22;3302;52.508;13.454;2024-01-15T14:57:50;2.00;99.90
6538;DHT22;3302;52.508;13.454;2024-01-15T15:00:18;2.00;99.90
6538;DHT22;3302;52.508;13.454;2024-01-15T15:02:44;2.00;99.90
6538;DHT22;3302;52.508;13.454;2024-01-15T15:05:10;2.00;99.90
6538;DHT22;3302;52.508;13.454;2024-01-15T15:07:36;2.00;99.90
6538;DHT22;3302;52.508;13.454;2024-01-15T15:10:03;2.00;99.90
6538;DHT22;3302;52.508;13.454;2024-01-15T15:12:30;2.00;99.90
6538;DHT22;3302;52.508;13.454;2024-01-15T15:14:56;1.90;99.90
6538;DHT22;3302;52.508;13.454;2024-01-15T15:17:22;1.90;99.90
6538;DHT22;3302;52.508;13.454;2024-01-15T15:19:48;1.90;99.90
6538;DHT22;3302;52.508;13.454;2024-01-15T15:22:14;1.90;99.90
6538;DHT22;3302;52.508;13.454;2024-01-15T15:24:40;1.90;99.90
6538;DHT22;3302;52.508;13.454;2024-01-15T15:27:06;1.90;99.90
6538;DHT22;3302;52.508;13.454;2024-01-15T15:29:32;1.90;99.90
6538;DHT22;3302;52.508;13.454;2024-01-15T15:32:00;1.90;99.90
6538;DHT22;3302;52.508;13.454;2024-01-15T15:34:27;1.90;99.90
6538;DHT22;3302;52.508;13.454;2024-01-15T15:36:53;1.80;99.90
6538;DHT22;3302;52.508;13.454;2024-01-15T15:39:18;1.90;99.90
6538;DHT22;3302;52.508;13.454;2024-01-15T15:41:44;1.80;99.90
6538;DHT22;3302;52.508;13.454;2024-01-15T15:44:10;1.90;99.90
6538;DHT22;3302;52.508;13.454;2024-01-15T15:46:38;1.80;99.90
6538;DHT22;3302;52.508;13.454;2024-01-15T15:49:04;1.70;99.90
6538;DHT22;3302;52.508;13.454;2024-01-15T15:51:32;1.70;99.90
6538;DHT22;3302;52.508;13.454;2024-01-15T15:53:59;1.60;99.90
6538;DHT22;3302;52.508;13.454;2024-01-15T15:56:25;1.60;99.90
6538;DHT22;3302;52.508;13.454;2024-01-15T15:58:54;1.60;99.90
6538;DHT22;3302;52.508;13.454;2024-01-15T16:01:19;1.60;99.90
6538;DHT22;3302;52.508;13.454;2024-01-15T16:03:45;1.60;99.90
6538;DHT22;3302;52.508;13.454;2024-01-15T16:06:11;1.60;99.90
6538;DHT22;3302;52.508;13.454;2024-01-15T16:08:37;1.60;99.90
6538;DHT22;3302;52.508;13.454;2024-01-15T16:11:02;1.60;99.90
6538;DHT22;3302;52.508;13.454;2024-01-15T16:13:29;1.60;99.90